Maldives Meteorological Service

TAFS

Station TAF
VRMM
VRMM 181100Z 1812/1918 07008KT 7000 FEW018 TEMPO 1812/1818 5000 HZ FEW018CB=
VRMH
VRMH 181100Z 1812/1912 35005KT 9999 FEW018=
VRMK
VRMK 181100Z 1812/1912 02004KT 9999 FEW018 TEMPO 1814/1820 5000 –TSRA FEW018CB=
VRMT
VRMT 181100Z 1812/1912 16006KT 9999 FEW018TCU TEMPO 1812/1818 5000 –TSRA FEW018CB=
VRMG
VRMG 181100Z 1812/1918 02003KT 9999 FEW017TCU TEMPO 1812/1818 5000 –TSRA FEW018CB=